METAR AND TAF INFORMATION
METAR FOR WARR
ADDS - METARS form results

(2058 UTC 18 December 2018)
Data provider http://aviationweather.gov/metar/data/
 
METAR text: WARR 182030Z 00000KT 5000 HZ FEW020 26/24 Q1010 NOSIG
Conditions at: WARR (JUANDA , ID) observed 2030 UTC 18 December 2018
Temperature: 26.0°C (79°F)
Dewpoint: 24.0°C (75°F) [RH = 89%]
Pressure (altimeter): 29.82 inches Hg (1010.0 mb)
Winds: calm
Visibility: 3 miles ( 5 km)
Ceiling: at least 12,000 feet AGL
Clouds: few clouds at 2000 feet AGL
Weather: HZ  (haze)

METAR text: WARR 182000Z 00000KT 5000 HZ FEW020 26/24 Q1010 NOSIG
Conditions at: WARR (JUANDA , ID) observed 2000 UTC 18 December 2018
Temperature: 26.0°C (79°F)
Dewpoint: 24.0°C (75°F) [RH = 89%]
Pressure (altimeter): 29.82 inches Hg (1010.0 mb)
Winds: calm
Visibility: 3 miles ( 5 km)
Ceiling: at least 12,000 feet AGL
Clouds: few clouds at 2000 feet AGL
Weather: HZ  (haze)

Forecast for: WARR (JUANDA , ID)
Text: TAF WARR 181700Z 1818/1918 27005KT 5000 BR FEW020
Forecast period: 1800 UTC 18 December 2018 to 0000 UTC 19 December 2018
Forecast type: FROM: standard forecast or significant change
Winds: from the W (270 degrees) at 6 MPH (5 knots; 2.6 m/s)
Visibility: 3 miles (5 km)
Ceiling: at least 12,000 feet AGL
Clouds: few clouds at 2000 feet AGL
Weather: BR  (mist)
Text: BECMG 1900/1902 11010KT 9999 NSW
Forecast period: 0000 to 1800 UTC 19 December 2018
Forecast type: BECOMING: Conditions expected to become as follows by 0200 UTC 19 December 2018
Winds: from the ESE (110 degrees) at 12 MPH (10 knots; 5.1 m/s)
Visibility: 6 or more miles 10+ km)
Ceiling: at least 12,000 feet AGL
Clouds: few clouds at 2000 feet AGL
Weather: NSW  (no significant weather)
Text: PROB30
Forecast period: 0900 to 1200 UTC 19 December 2018
Forecast type: TEMPORARY: The following changes expected for less than half the time period
Visibility: 3 miles (5 km)
Ceiling: at least 12,000 feet AGL
Clouds: few clouds at 1800 feet AGL
scattered clouds at 2000 feet AGL
Weather: TSRA  (rain associated with thunderstorm(s))

 AIRPORT MAP

 RUNWAY INFORMATION
Runway 10 Runway length 9843 ft Runway width 148 ft
Runway elevation 11 ft Runway displaced threshold 0 ft Runway heading 99
Runway 28 Runway length 9843 ft Runway width 148 ft
Runway elevation 8 ft Runway displaced threshold 0 ft Runway heading 279

 AIRPORT FREQUENCIES
Type ATIS Name ATIS Frequency 128.2 MHZ
Type DIR Name Surabaya D Frequency 123.2 MHZ
Type DIR Name Surabaya D Frequency 125.1 MHZ
Type SMC Name Ground Con Frequency 119.15 MHZ
Type TCA Name Surabaya C Frequency 123.55 MHZ
Type TCA Name Surabaya C Frequency 124 MHZ
Type TWR Name Tower - Se Frequency 118.1 MHZ
Type TWR Name Tower - Pr Frequency 118.3 MHZ

 AIRPORT NEAR NAVIGATION AIDS
Type NDB Name Surabaya Frequency 325 KHZ
Type VOR-DME Name Surabaya Frequency 113400 KHZ
Type NDB Name Surabaya Frequency 400 KHZ



Copyright © 2011 - 2018 BirgenAir Virtual Airlines. All rights reserved. Developed by Goktug Unver